createdAt,value
2022-10-02T00:02:40.575Z,9.16
2022-10-02T00:05:37.967Z,9.15
2022-10-02T00:08:12.335Z,9.10
2022-10-02T00:10:52.994Z,8.98
2022-10-02T00:13:24.894Z,9.00
2022-10-02T00:15:53.368Z,8.82
2022-10-02T00:18:24.527Z,9.07
2022-10-02T00:21:06.966Z,9.09
2022-10-02T00:23:46.431Z,9.12
2022-10-02T00:26:59.943Z,9.13
2022-10-02T00:29:31.381Z,9.15
2022-10-02T00:32:01.058Z,9.22
2022-10-02T00:34:34.347Z,9.27
2022-10-02T00:37:16.296Z,9.27
2022-10-02T00:40:35.490Z,9.31
2022-10-02T00:43:26.943Z,9.33
2022-10-02T00:46:24.514Z,9.36
2022-10-02T00:49:09.536Z,9.35
2022-10-02T00:52:02.809Z,9.39
2022-10-02T00:55:03.280Z,9.33
2022-10-02T00:57:50.560Z,9.29
2022-10-02T01:00:19.204Z,9.27
2022-10-02T01:03:10.315Z,9.31
2022-10-02T01:05:38.060Z,9.04
2022-10-02T01:08:06.103Z,9.34
2022-10-02T01:10:34.221Z,9.39
2022-10-02T01:13:01.387Z,9.36
2022-10-02T01:15:31.991Z,9.36
2022-10-02T01:17:59.261Z,9.43
2022-10-02T01:20:37.912Z,9.35
2022-10-02T01:23:04.832Z,9.33
2022-10-02T01:25:32.276Z,9.21
2022-10-02T01:27:59.608Z,9.31
2022-10-02T01:30:29.659Z,9.35
2022-10-02T01:32:59.757Z,9.46
2022-10-02T01:35:33.817Z,9.39
2022-10-02T01:38:05.868Z,9.58
2022-10-02T01:40:35.044Z,9.55
2022-10-02T01:43:16.808Z,9.65
2022-10-02T01:45:53.240Z,9.72
2022-10-02T01:48:52.478Z,9.76
2022-10-02T01:51:32.231Z,9.68
2022-10-02T01:54:25.465Z,9.62
2022-10-02T01:57:13.810Z,9.78
2022-10-02T01:59:53.558Z,9.84
2022-10-02T02:02:25.111Z,9.80
2022-10-02T02:05:05.132Z,9.88
2022-10-02T02:08:07.515Z,9.97
2022-10-02T02:10:46.912Z,9.93
2022-10-02T02:13:21.221Z,10.01
2022-10-02T02:15:54.525Z,10.10
2022-10-02T02:18:46.371Z,9.90
2022-10-02T02:21:22.085Z,10.15
2022-10-02T02:23:50.713Z,10.16
2022-10-02T02:26:19.884Z,10.19
2022-10-02T02:28:52.647Z,10.17
2022-10-02T02:31:24.007Z,10.05
2022-10-02T02:33:59.605Z,10.26
2022-10-02T02:36:41.304Z,10.33
2022-10-02T02:39:12.921Z,10.39
2022-10-02T02:41:48.993Z,10.37
2022-10-02T02:44:24.170Z,10.27
2022-10-02T02:47:04.657Z,10.24
2022-10-02T02:50:00.280Z,10.31
2022-10-02T02:52:41.637Z,10.45
2022-10-02T02:55:18.319Z,10.49
2022-10-02T02:58:04.202Z,10.49
2022-10-02T03:00:31.311Z,10.46
2022-10-02T03:02:58.480Z,10.50
2022-10-02T03:05:25.640Z,10.58
2022-10-02T03:08:03.833Z,10.52
2022-10-02T03:10:46.833Z,10.52
2022-10-02T03:13:44.313Z,10.91
2022-10-02T03:16:45.996Z,11.05
2022-10-02T03:19:37.373Z,10.99
2022-10-02T03:22:07.941Z,11.23
2022-10-02T03:24:52.944Z,11.32
2022-10-02T03:27:37.477Z,11.32
2022-10-02T03:30:11.494Z,11.41
2022-10-02T03:32:40.761Z,11.46
2022-10-02T03:35:14.336Z,11.44
2022-10-02T03:37:46.932Z,11.48
2022-10-02T03:40:13.883Z,11.50
2022-10-02T03:42:40.937Z,11.52
2022-10-02T03:45:08.742Z,11.54
2022-10-02T03:47:35.703Z,11.59
2022-10-02T03:50:02.913Z,11.57
2022-10-02T03:52:31.624Z,11.53
2022-10-02T03:55:03.230Z,11.55
2022-10-02T03:57:33.949Z,11.62
2022-10-02T04:00:21.946Z,11.61
2022-10-02T04:02:51.688Z,11.57
2022-10-02T04:05:26.436Z,11.64
2022-10-02T04:08:03.173Z,11.73
2022-10-02T04:11:08.629Z,11.70
2022-10-02T04:13:39.889Z,11.72
2022-10-02T04:16:17.581Z,11.68
2022-10-02T04:18:55.519Z,11.50
2022-10-02T04:21:34.834Z,11.76
2022-10-02T04:24:31.936Z,11.85
2022-10-02T04:27:07.709Z,11.92
2022-10-02T04:29:45.009Z,11.74
2022-10-02T04:32:15.041Z,11.94
2022-10-02T04:34:42.650Z,11.92
2022-10-02T04:37:28.483Z,12.03
2022-10-02T04:39:55.478Z,12.08
2022-10-02T04:42:59.621Z,12.11
2022-10-02T04:45:47.909Z,12.00
2022-10-02T04:48:46.301Z,12.04
2022-10-02T04:51:40.274Z,12.07
2022-10-02T04:54:22.405Z,12.17
2022-10-02T04:56:52.503Z,12.16
2022-10-02T04:59:32.948Z,12.15
2022-10-02T05:02:11.510Z,12.15
2022-10-02T05:05:05.354Z,12.15
2022-10-02T05:07:56.872Z,12.27
2022-10-02T05:10:48.642Z,12.20
2022-10-02T05:13:42.822Z,12.21
2022-10-02T05:16:37.210Z,12.18
2022-10-02T05:19:15.291Z,12.18
2022-10-02T05:21:57.148Z,12.23
2022-10-02T05:24:34.796Z,12.25
2022-10-02T05:27:10.697Z,12.28
2022-10-02T05:30:07.549Z,12.29
2022-10-02T05:32:43.608Z,12.28
2022-10-02T05:35:59.037Z,12.33
2022-10-02T05:38:32.137Z,12.30
2022-10-02T05:41:16.029Z,12.33
2022-10-02T05:44:02.545Z,12.38
2022-10-02T05:46:37.134Z,12.18
2022-10-02T05:49:17.109Z,12.49
2022-10-02T05:52:02.940Z,12.51
2022-10-02T05:54:55.407Z,12.52
2022-10-02T05:57:26.932Z,12.50
2022-10-02T06:00:08.628Z,12.52
2022-10-02T06:02:57.192Z,12.54
2022-10-02T06:05:40.635Z,12.51
2022-10-02T06:08:13.436Z,12.57
2022-10-02T06:10:49.264Z,12.65
2022-10-02T06:13:35.607Z,12.60
2022-10-02T06:16:14.599Z,12.50
2022-10-02T06:18:46.346Z,12.69
2022-10-02T06:21:45.579Z,12.77
2022-10-02T06:24:20.317Z,12.74
2022-10-02T06:27:00.982Z,12.80
2022-10-02T06:29:34.489Z,12.69
2022-10-02T06:32:52.995Z,12.81
2022-10-02T06:35:28.969Z,12.82
2022-10-02T06:37:56.574Z,12.85
2022-10-02T06:40:32.760Z,12.93
2022-10-02T06:43:14.026Z,12.99
2022-10-02T06:46:03.809Z,12.94
2022-10-02T06:49:04.201Z,13.03
2022-10-02T06:52:03.064Z,12.88
2022-10-02T06:55:08.548Z,13.22
2022-10-02T06:58:03.453Z,13.19
2022-10-02T07:00:34.777Z,13.09
2022-10-02T07:03:09.095Z,12.77
2022-10-02T07:06:16.011Z,13.06
2022-10-02T07:08:55.203Z,13.23
2022-10-02T07:11:35.082Z,13.27
2022-10-02T07:14:28.737Z,13.36
2022-10-02T07:17:05.101Z,13.40
2022-10-02T07:19:58.626Z,13.41
2022-10-02T07:22:45.469Z,13.52
2022-10-02T07:25:34.358Z,13.63
2022-10-02T07:28:30.750Z,13.57
2022-10-02T07:31:18.171Z,13.65
2022-10-02T07:34:07.213Z,13.73
2022-10-02T07:36:59.583Z,13.82
2022-10-02T07:39:33.077Z,13.92
2022-10-02T07:42:15.876Z,14.00
2022-10-02T07:44:49.873Z,13.95
2022-10-02T07:47:27.263Z,14.09
2022-10-02T07:50:03.983Z,14.07
2022-10-02T07:52:39.983Z,14.00
2022-10-02T07:55:16.417Z,13.92
2022-10-02T07:58:02.376Z,13.87
2022-10-02T08:00:39.870Z,13.72
2022-10-02T08:03:18.114Z,13.69
2022-10-02T08:05:49.189Z,13.36
2022-10-02T08:08:26.128Z,13.81
2022-10-02T08:11:09.165Z,13.85
2022-10-02T08:13:44.756Z,13.85
2022-10-02T08:16:14.731Z,13.90
2022-10-02T08:18:48.130Z,13.82
2022-10-02T08:21:19.525Z,13.78
2022-10-02T08:23:53.224Z,13.67
2022-10-02T08:26:39.301Z,13.65
2022-10-02T08:29:19.602Z,13.50
2022-10-02T08:31:47.131Z,13.64
2022-10-02T08:34:20.834Z,13.60
2022-10-02T08:37:15.541Z,13.62
2022-10-02T08:40:04.235Z,13.57
2022-10-02T08:42:37.027Z,13.45
2022-10-02T08:45:04.026Z,13.47
2022-10-02T08:48:22.522Z,13.33
2022-10-02T08:51:27.338Z,12.90
2022-10-02T08:53:57.262Z,13.47
2022-10-02T08:56:36.276Z,13.53
2022-10-02T08:59:21.741Z,13.72
2022-10-02T09:02:21.086Z,13.80
2022-10-02T09:05:06.901Z,13.93
2022-10-02T09:08:07.964Z,13.79
2022-10-02T09:10:52.128Z,14.06
2022-10-02T09:13:50.568Z,13.99
2022-10-02T09:16:32.701Z,14.27
2022-10-02T09:19:10.027Z,14.63
2022-10-02T09:21:52.520Z,14.81
2022-10-02T09:24:46.486Z,14.84
2022-10-02T09:27:22.678Z,15.07
2022-10-02T09:30:08.056Z,15.22
2022-10-02T09:32:57.314Z,15.30
2022-10-02T09:36:02.079Z,15.05
2022-10-02T09:38:38.978Z,14.84
2022-10-02T09:41:27.801Z,14.94
2022-10-02T09:44:12.987Z,15.08
2022-10-02T09:46:58.133Z,15.04
2022-10-02T09:49:48.063Z,15.12
2022-10-02T09:52:24.189Z,15.16
2022-10-02T09:55:03.533Z,14.95
2022-10-02T09:57:59.201Z,14.82
2022-10-02T10:00:35.050Z,14.62
2022-10-02T10:03:16.940Z,14.62
2022-10-02T10:06:03.013Z,14.47
2022-10-02T10:08:48.025Z,14.35
2022-10-02T10:11:36.335Z,14.32
2022-10-02T10:14:18.656Z,14.36
2022-10-02T10:17:05.582Z,14.27
2022-10-02T10:20:06.450Z,14.51
2022-10-02T10:22:57.778Z,14.60
2022-10-02T10:25:50.120Z,14.79
2022-10-02T10:28:47.037Z,14.92
2022-10-02T10:31:24.241Z,15.33
2022-10-02T10:34:29.028Z,15.30
2022-10-02T10:37:16.620Z,15.30
2022-10-02T10:40:38.433Z,15.27
2022-10-02T10:43:51.564Z,15.31
2022-10-02T10:46:46.151Z,15.21
2022-10-02T10:49:39.169Z,15.12
2022-10-02T10:52:13.974Z,15.11
2022-10-02T10:55:05.882Z,15.13
2022-10-02T10:57:51.268Z,15.11
2022-10-02T11:00:25.109Z,15.11
2022-10-02T11:03:08.069Z,15.34
2022-10-02T11:06:09.336Z,15.83
2022-10-02T11:09:24.017Z,15.86
2022-10-02T11:12:28.105Z,16.02
2022-10-02T11:15:01.187Z,15.94
2022-10-02T11:17:43.368Z,16.11
2022-10-02T11:20:24.792Z,15.90
2022-10-02T11:23:06.205Z,15.49
2022-10-02T11:25:59.538Z,14.91
2022-10-02T11:28:50.025Z,15.11
2022-10-02T11:31:33.047Z,15.06
2022-10-02T11:34:19.733Z,15.05
2022-10-02T11:37:09.520Z,15.04
2022-10-02T11:40:15.554Z,15.38
2022-10-02T11:43:13.853Z,15.75
2022-10-02T11:46:11.998Z,16.13
2022-10-02T11:49:20.165Z,15.75
2022-10-02T11:51:52.866Z,15.33
2022-10-02T11:54:19.873Z,15.59
2022-10-02T11:57:01.827Z,15.79
2022-10-02T11:59:39.376Z,15.41
2022-10-02T12:02:26.250Z,15.55
2022-10-02T12:05:13.242Z,15.87
2022-10-02T12:08:01.541Z,16.07
2022-10-02T12:10:44.721Z,15.62
2022-10-02T12:13:37.626Z,15.99
2022-10-02T12:16:22.930Z,15.85
2022-10-02T12:18:52.941Z,16.31
2022-10-02T12:22:03.718Z,16.08
2022-10-02T12:25:30.852Z,16.49
2022-10-02T12:28:36.122Z,16.17
2022-10-02T12:31:27.907Z,16.11
2022-10-02T12:34:11.064Z,16.38
2022-10-02T12:36:56.457Z,16.44
2022-10-02T12:39:26.544Z,16.54
2022-10-02T12:42:02.412Z,16.41
2022-10-02T12:44:48.665Z,16.54
2022-10-02T12:47:18.351Z,16.59
2022-10-02T12:50:11.069Z,16.39
2022-10-02T12:53:05.332Z,16.25
2022-10-02T12:55:57.276Z,16.28
2022-10-02T12:58:26.931Z,16.41
2022-10-02T13:01:12.253Z,16.48
2022-10-02T13:04:06.953Z,16.54
2022-10-02T13:07:13.514Z,16.56
2022-10-02T13:09:47.268Z,16.57
2022-10-02T13:12:29.260Z,16.49
2022-10-02T13:15:02.754Z,16.83
2022-10-02T13:17:47.656Z,16.84
2022-10-02T13:20:42.742Z,16.92
2022-10-02T13:23:12.958Z,16.92
2022-10-02T13:25:58.661Z,16.75
2022-10-02T13:28:41.081Z,16.63
2022-10-02T13:31:39.048Z,16.82
2022-10-02T13:34:15.543Z,16.58
2022-10-02T13:36:56.712Z,16.78
2022-10-02T13:39:33.640Z,16.73
2022-10-02T13:42:11.439Z,16.74
2022-10-02T13:44:44.530Z,16.84
2022-10-02T13:47:17.327Z,16.85
2022-10-02T13:50:26.637Z,16.80
2022-10-02T13:53:14.014Z,16.85
2022-10-02T13:56:15.434Z,16.59
2022-10-02T13:59:04.305Z,16.64
2022-10-02T14:02:02.656Z,16.86
2022-10-02T14:05:03.416Z,16.94
2022-10-02T14:07:54.945Z,17.12
2022-10-02T14:10:53.396Z,17.19
2022-10-02T14:13:43.669Z,16.93
2022-10-02T14:16:25.587Z,16.76
2022-10-02T14:19:24.689Z,16.56
2022-10-02T14:22:10.517Z,16.67
2022-10-02T14:25:17.066Z,16.26
2022-10-02T14:28:17.080Z,16.57
2022-10-02T14:30:51.953Z,16.46
2022-10-02T14:33:24.994Z,16.57
2022-10-02T14:36:05.145Z,16.76
2022-10-02T14:38:45.632Z,16.83
2022-10-02T14:41:24.749Z,16.90
2022-10-02T14:44:13.564Z,16.79
2022-10-02T14:46:59.366Z,16.79
2022-10-02T14:49:35.302Z,16.77
2022-10-02T14:52:28.484Z,16.73
2022-10-02T14:55:26.615Z,16.79
2022-10-02T14:58:41.157Z,16.54
2022-10-02T15:01:10.463Z,16.67
2022-10-02T15:04:00.980Z,16.63
2022-10-02T15:06:52.349Z,16.45
2022-10-02T15:09:28.447Z,16.13
2022-10-02T15:12:14.105Z,16.28
2022-10-02T15:15:08.986Z,16.13
2022-10-02T15:17:57.384Z,15.96
2022-10-02T15:20:38.240Z,15.99
2022-10-02T15:23:11.829Z,15.99
2022-10-02T15:25:38.761Z,15.84
2022-10-02T15:28:35.961Z,15.46
2022-10-02T15:31:35.816Z,15.85
2022-10-02T15:34:31.033Z,15.99
2022-10-02T15:37:22.888Z,15.96
2022-10-02T15:40:16.775Z,15.89
2022-10-02T15:42:52.377Z,15.84
2022-10-02T15:45:47.999Z,16.04
2022-10-02T15:48:21.130Z,16.06
2022-10-02T15:50:53.920Z,15.93
2022-10-02T15:53:42.993Z,15.70
2022-10-02T15:56:32.991Z,15.69
2022-10-02T15:59:17.389Z,15.71
2022-10-02T16:02:10.098Z,15.55
2022-10-02T16:04:39.921Z,15.56
2022-10-02T16:07:30.223Z,15.46
2022-10-02T16:10:08.574Z,15.51
2022-10-02T16:12:35.485Z,15.49
2022-10-02T16:15:25.417Z,15.63
2022-10-02T16:18:04.620Z,15.70
2022-10-02T16:20:44.860Z,15.83
2022-10-02T16:23:54.729Z,15.84
2022-10-02T16:26:43.601Z,15.41
2022-10-02T16:29:26.756Z,15.83
2022-10-02T16:32:30.930Z,15.90
2022-10-02T16:35:18.165Z,15.80
2022-10-02T16:38:06.291Z,15.71
2022-10-02T16:40:58.911Z,15.71
2022-10-02T16:43:58.806Z,15.77
2022-10-02T16:46:37.339Z,15.74
2022-10-02T16:49:43.132Z,15.61
2022-10-02T16:52:24.738Z,15.45
2022-10-02T16:55:14.704Z,15.49
2022-10-02T16:57:41.674Z,15.39
2022-10-02T17:00:34.003Z,15.26
2022-10-02T17:03:05.645Z,15.21
2022-10-02T17:05:53.316Z,15.08
2022-10-02T17:08:31.287Z,15.11
2022-10-02T17:11:25.813Z,15.12
2022-10-02T17:14:01.713Z,15.13
2022-10-02T17:16:52.666Z,15.01
2022-10-02T17:19:45.636Z,14.99
2022-10-02T17:22:33.155Z,14.90
2022-10-02T17:25:06.780Z,14.81
2022-10-02T17:28:01.668Z,14.60
2022-10-02T17:30:44.583Z,14.71
2022-10-02T17:33:15.005Z,14.58
2022-10-02T17:35:41.858Z,14.49
2022-10-02T17:38:39.637Z,14.42
2022-10-02T17:41:12.698Z,14.40
2022-10-02T17:44:08.382Z,14.46
2022-10-02T17:46:50.685Z,14.34
2022-10-02T17:49:58.919Z,14.19
2022-10-02T17:52:50.794Z,14.23
2022-10-02T17:55:48.833Z,14.12
2022-10-02T17:58:39.947Z,14.10
2022-10-02T18:01:40.524Z,14.11
2022-10-02T18:04:28.858Z,14.10
2022-10-02T18:07:04.910Z,14.04
2022-10-02T18:09:40.132Z,13.84
2022-10-02T18:12:30.773Z,13.87
2022-10-02T18:15:06.474Z,13.58
2022-10-02T18:17:54.698Z,13.64
2022-10-02T18:20:40.894Z,13.60
2022-10-02T18:23:17.097Z,13.56
2022-10-02T18:26:05.119Z,13.42
2022-10-02T18:29:08.048Z,13.41
2022-10-02T18:31:57.681Z,13.35
2022-10-02T18:34:58.420Z,13.25
2022-10-02T18:37:37.876Z,12.99
2022-10-02T18:40:30.147Z,13.20
2022-10-02T18:43:25.105Z,13.07
2022-10-02T18:46:16.487Z,13.02
2022-10-02T18:49:14.058Z,12.93
2022-10-02T18:51:56.084Z,13.00
2022-10-02T18:55:04.487Z,12.87
2022-10-02T18:57:55.134Z,12.45
2022-10-02T19:00:25.152Z,12.81
2022-10-02T19:03:36.734Z,12.77
2022-10-02T19:06:19.513Z,12.83
2022-10-02T19:09:19.148Z,12.69
2022-10-02T19:11:57.879Z,12.67
2022-10-02T19:14:41.749Z,12.48
2022-10-02T19:17:21.895Z,12.51
2022-10-02T19:19:48.933Z,12.32
2022-10-02T19:22:21.152Z,12.03
2022-10-02T19:24:52.553Z,12.22
2022-10-02T19:27:31.040Z,11.89
2022-10-02T19:30:05.183Z,12.11
2022-10-02T19:32:51.942Z,11.98
2022-10-02T19:35:28.391Z,11.90
2022-10-02T19:38:09.256Z,11.80
2022-10-02T19:40:36.954Z,11.84
2022-10-02T19:43:09.389Z,11.78
2022-10-02T19:45:42.532Z,11.23
2022-10-02T19:48:10.831Z,11.63
2022-10-02T19:50:45.611Z,11.42
2022-10-02T19:53:23.329Z,11.12
2022-10-02T19:55:55.816Z,11.42
2022-10-02T19:58:35.793Z,11.40
2022-10-02T20:01:06.331Z,11.35
2022-10-02T20:03:34.631Z,11.19
2022-10-02T20:06:13.988Z,11.25
2022-10-02T20:08:45.198Z,10.97
2022-10-02T20:11:26.680Z,11.18
2022-10-02T20:14:01.978Z,10.81
2022-10-02T20:16:47.872Z,11.03
2022-10-02T20:19:19.812Z,10.61
2022-10-02T20:21:55.538Z,10.83
2022-10-02T20:25:03.622Z,10.87
2022-10-02T20:27:45.795Z,10.85
2022-10-02T20:30:18.814Z,10.81
2022-10-02T20:32:53.212Z,10.80
2022-10-02T20:35:29.183Z,10.76
2022-10-02T20:38:01.302Z,10.62
2022-10-02T20:40:32.420Z,10.51
2022-10-02T20:43:11.513Z,10.71
2022-10-02T20:45:59.482Z,10.52
2022-10-02T20:49:07.580Z,10.60
2022-10-02T20:52:14.272Z,10.58
2022-10-02T20:55:06.378Z,10.34
2022-10-02T20:58:01.504Z,10.37
2022-10-02T21:01:02.461Z,9.88
2022-10-02T21:03:35.504Z,10.40
2022-10-02T21:06:43.116Z,10.30
2022-10-02T21:09:27.426Z,9.95
2022-10-02T21:12:15.740Z,10.24
2022-10-02T21:15:09.001Z,10.28
2022-10-02T21:17:54.349Z,10.28
2022-10-02T21:20:51.312Z,10.25
2022-10-02T21:23:55.782Z,10.23
2022-10-02T21:26:44.049Z,10.19
2022-10-02T21:29:53.085Z,10.13
2022-10-02T21:32:57.517Z,9.92
2022-10-02T21:35:42.450Z,9.98
2022-10-02T21:38:42.828Z,10.02
2022-10-02T21:41:21.926Z,9.97
2022-10-02T21:44:37.356Z,9.96
2022-10-02T21:47:26.158Z,9.93
2022-10-02T21:50:11.816Z,9.85
2022-10-02T21:53:00.877Z,9.83
2022-10-02T21:55:51.270Z,9.80
2022-10-02T21:58:43.004Z,9.52
2022-10-02T22:02:04.091Z,9.70
2022-10-02T22:04:57.000Z,9.70
2022-10-02T22:07:33.334Z,9.69
2022-10-02T22:10:03.351Z,9.65
2022-10-02T22:13:09.255Z,9.36
2022-10-02T22:15:57.683Z,9.53
2022-10-02T22:18:41.122Z,9.43
2022-10-02T22:21:33.765Z,9.56
2022-10-02T22:24:08.940Z,9.42
2022-10-02T22:26:57.694Z,9.60
2022-10-02T22:29:54.902Z,9.71
2022-10-02T22:32:50.757Z,9.69
2022-10-02T22:35:48.730Z,9.67
2022-10-02T22:38:32.078Z,9.67
2022-10-02T22:41:05.693Z,9.14
2022-10-02T22:43:46.760Z,9.70
2022-10-02T22:46:25.911Z,9.71
2022-10-02T22:49:04.622Z,9.71
2022-10-02T22:51:42.854Z,9.69
2022-10-02T22:54:28.098Z,9.62
2022-10-02T22:57:12.699Z,9.71
2022-10-02T22:59:45.891Z,9.65
2022-10-02T23:02:28.867Z,9.48
2022-10-02T23:05:05.741Z,9.38
2022-10-02T23:07:50.712Z,9.69
2022-10-02T23:10:55.035Z,9.67
2022-10-02T23:13:26.756Z,9.63
2022-10-02T23:16:23.353Z,9.56
2022-10-02T23:19:15.612Z,9.56
2022-10-02T23:22:01.756Z,9.54
2022-10-02T23:24:47.290Z,9.40
2022-10-02T23:27:20.985Z,9.36
2022-10-02T23:30:09.906Z,9.48
2022-10-02T23:32:47.646Z,9.56
2022-10-02T23:35:39.159Z,9.51
2022-10-02T23:38:19.451Z,9.52
2022-10-02T23:41:26.928Z,9.36
2022-10-02T23:44:12.021Z,9.56
2022-10-02T23:46:48.751Z,9.56
2022-10-02T23:49:23.852Z,9.44
2022-10-02T23:52:09.644Z,9.30
2022-10-02T23:54:54.985Z,9.66
2022-10-02T23:57:32.941Z,9.59
